Time;durP1;ratioP1;P1;durP2;ratioP2;P2;SDS_P1;SDS_P2;PMS_P1;PMS_P2;Temp;Humidity;BMP_temperature;BMP_pressure;BME280_temperature;BME280_humidity;BME280_pressure;Samples;Min_cycle;Max_cycle;Signal;HPM_P1;HPM_P2
2021/08/10 00:00:15;;;;;;;10.57;7.43;;;14.20;99.90;;;;;;4982737;28;20481;-54
2021/08/10 00:02:40;;;;;;;11.65;7.82;;;14.20;99.90;;;;;;4982476;28;20029;-53
2021/08/10 00:05:07;;;;;;;11.57;7.38;;;14.20;99.90;;;;;;4980492;28;20026;-53
2021/08/10 00:07:33;;;;;;;10.25;6.85;;;14.10;99.90;;;;;;4983917;28;20030;-53
2021/08/10 00:09:58;;;;;;;11.02;7.13;;;14.10;99.90;;;;;;4981627;28;20030;-53
2021/08/10 00:12:24;;;;;;;10.00;7.47;;;14.10;99.90;;;;;;4981638;28;20023;-52
2021/08/10 00:14:49;;;;;;;7.55;5.63;;;14.10;99.90;;;;;;4981975;28;20105;-52
2021/08/10 00:17:15;;;;;;;9.13;5.43;;;14.10;99.90;;;;;;4979139;28;20477;-53
2021/08/10 00:19:41;;;;;;;8.05;6.32;;;14.10;99.90;;;;;;4982642;28;20041;-55
2021/08/10 00:22:06;;;;;;;10.02;5.93;;;14.00;99.90;;;;;;4980938;28;20022;-53
2021/08/10 00:24:32;;;;;;;8.15;5.40;;;14.00;99.90;;;;;;4977684;28;20442;-54
2021/08/10 00:27:01;;;;;;;10.75;5.65;;;14.00;99.90;;;;;;4985981;28;20041;-52
2021/08/10 00:29:27;;;;;;;8.52;6.25;;;13.90;99.90;;;;;;4979232;28;20038;-52
2021/08/10 00:31:52;;;;;;;9.95;5.90;;;13.90;99.90;;;;;;4986631;28;20057;-52
2021/08/10 00:34:18;;;;;;;9.20;6.57;;;13.90;99.90;;;;;;4978447;28;20062;-51
2021/08/10 00:36:44;;;;;;;9.23;5.85;;;13.90;99.90;;;;;;4978503;28;20445;-53
2021/08/10 00:39:09;;;;;;;7.35;5.18;;;13.90;99.90;;;;;;4985471;28;20558;-52
2021/08/10 00:41:35;;;;;;;8.65;5.43;;;13.90;99.90;;;;;;4979275;28;20027;-53
2021/08/10 00:44:00;;;;;;;8.75;6.13;;;13.80;99.90;;;;;;4939668;28;1056021;-53
2021/08/10 00:46:26;;;;;;;7.50;5.82;;;13.80;99.90;;;;;;4995418;28;20037;-53
2021/08/10 00:48:51;;;;;;;9.23;6.10;;;13.80;99.90;;;;;;4987351;28;20026;-53
2021/08/10 00:51:17;;;;;;;8.23;5.80;;;13.70;99.90;;;;;;4979901;28;20026;-54
2021/08/10 00:53:43;;;;;;;8.57;6.25;;;13.70;99.90;;;;;;4975272;28;20023;-52
2021/08/10 00:56:09;;;;;;;10.00;6.38;;;13.70;99.90;;;;;;5001633;28;20613;-52
2021/08/10 00:58:37;;;;;;;10.85;6.40;;;13.70;99.90;;;;;;4978082;28;20627;-56
2021/08/10 01:01:02;;;;;;;9.43;6.32;;;13.70;99.90;;;;;;4985579;28;20038;-52
2021/08/10 01:03:28;;;;;;;8.90;6.43;;;13.70;99.90;;;;;;4976301;28;20080;-55
2021/08/10 01:05:54;;;;;;;9.05;6.95;;;13.70;99.90;;;;;;4978447;28;20174;-55
2021/08/10 01:08:41;;;;;;;7.88;5.70;;;13.60;99.90;;;;;;4985302;28;20098;-53
2021/08/10 01:11:20;;;;;;;11.85;5.95;;;13.60;99.90;;;;;;4981191;28;20019;-52
2021/08/10 01:13:55;;;;;;;8.15;5.80;;;13.60;99.90;;;;;;4977329;28;20033;-53
2021/08/10 01:16:37;;;;;;;8.10;6.20;;;13.60;99.90;;;;;;4969488;28;20030;-55
2021/08/10 01:19:40;;;;;;;10.68;6.47;;;13.50;99.90;;;;;;4982457;28;20027;-53
2021/08/10 01:22:08;;;;;;;8.50;5.95;;;13.50;99.90;;;;;;4981041;28;20440;-54
2021/08/10 01:24:40;;;;;;;10.80;6.25;;;13.40;99.90;;;;;;4982418;28;20596;-53
2021/08/10 01:27:31;;;;;;;10.95;6.03;;;13.40;99.90;;;;;;4980611;28;20085;-55
2021/08/10 01:30:15;;;;;;;9.27;6.10;;;13.40;99.90;;;;;;4983658;28;20025;-54
2021/08/10 01:32:44;;;;;;;9.82;6.47;;;13.40;99.90;;;;;;4978970;28;20034;-51
2021/08/10 01:35:11;;;;;;;9.68;6.07;;;13.40;99.90;;;;;;4981132;28;20165;-55
2021/08/10 01:37:38;;;;;;;10.38;7.53;;;13.30;99.90;;;;;;4982423;28;20019;-54
2021/08/10 01:40:09;;;;;;;9.25;7.10;;;13.30;99.90;;;;;;4980441;28;20035;-56
2021/08/10 01:42:37;;;;;;;8.60;6.70;;;13.30;99.90;;;;;;4983309;28;20023;-56
2021/08/10 01:45:04;;;;;;;8.65;6.50;;;13.30;99.90;;;;;;4976131;28;20043;-54
2021/08/10 01:47:31;;;;;;;10.63;7.25;;;13.20;99.90;;;;;;4984546;28;20528;-56
2021/08/10 01:49:59;;;;;;;9.80;6.50;;;13.20;99.90;;;;;;4979240;28;20041;-55
2021/08/10 01:52:26;;;;;;;9.65;6.32;;;13.20;99.90;;;;;;4980546;28;20014;-53
2021/08/10 01:54:53;;;;;;;9.07;6.63;;;13.10;99.90;;;;;;4979988;28;20037;-55
2021/08/10 01:57:20;;;;;;;8.90;5.82;;;13.10;99.90;;;;;;4982071;28;20101;-54
2021/08/10 01:59:53;;;;;;;8.05;5.63;;;13.10;99.90;;;;;;4981849;28;20102;-54
2021/08/10 02:02:20;;;;;;;7.38;5.32;;;13.10;99.90;;;;;;4968745;28;20027;-56
2021/08/10 02:04:48;;;;;;;13.73;6.82;;;13.10;99.90;;;;;;4981883;28;20393;-52
2021/08/10 02:07:14;;;;;;;8.90;5.72;;;13.10;99.90;;;;;;4981670;28;20097;-53
2021/08/10 02:09:40;;;;;;;8.40;6.35;;;13.00;99.90;;;;;;4981195;28;20098;-55
2021/08/10 02:12:08;;;;;;;7.75;6.20;;;13.00;99.90;;;;;;4980648;28;20057;-54
2021/08/10 02:14:34;;;;;;;7.85;5.40;;;13.00;99.90;;;;;;4981283;28;20045;-54
2021/08/10 02:17:03;;;;;;;10.27;6.68;;;13.00;99.90;;;;;;4980387;28;20489;-54
2021/08/10 02:19:29;;;;;;;8.07;5.15;;;13.00;99.90;;;;;;4982572;28;20023;-52
2021/08/10 02:22:13;;;;;;;9.20;5.75;;;13.00;99.90;;;;;;4979675;28;20086;-52
2021/08/10 02:24:54;;;;;;;8.35;5.72;;;12.90;99.90;;;;;;4980138;28;20022;-56
2021/08/10 02:27:32;;;;;;;10.38;6.30;;;12.90;99.90;;;;;;4979257;28;20104;-55
2021/08/10 02:30:05;;;;;;;7.00;5.72;;;12.90;99.90;;;;;;4986219;28;20015;-53
2021/08/10 02:32:33;;;;;;;10.15;5.72;;;12.90;99.90;;;;;;4977887;28;20119;-56
2021/08/10 02:35:00;;;;;;;9.60;6.20;;;12.90;99.90;;;;;;4977667;28;20122;-53
2021/08/10 02:37:26;;;;;;;7.97;5.93;;;12.90;99.90;;;;;;4982874;28;20034;-54
2021/08/10 02:39:54;;;;;;;6.05;4.97;;;12.90;99.90;;;;;;4978002;28;20023;-56
2021/08/10 02:42:23;;;;;;;6.53;5.60;;;12.90;99.90;;;;;;4971592;28;20019;-52
2021/08/10 02:44:50;;;;;;;6.35;4.93;;;12.80;99.90;;;;;;4973973;28;20069;-56
2021/08/10 02:47:17;;;;;;;8.90;5.13;;;12.80;99.90;;;;;;4985328;28;20023;-55
2021/08/10 02:49:43;;;;;;;5.88;5.25;;;12.80;99.90;;;;;;4977312;28;20019;-54
2021/08/10 02:52:09;;;;;;;5.85;4.65;;;12.80;99.90;;;;;;4979864;28;20027;-56
2021/08/10 02:54:36;;;;;;;9.25;5.30;;;12.80;99.90;;;;;;4981120;28;20362;-56
2021/08/10 02:57:09;;;;;;;8.15;5.15;;;12.80;99.90;;;;;;4978947;28;20409;-52
2021/08/10 02:59:40;;;;;;;9.65;6.07;;;12.80;99.90;;;;;;4982169;28;20485;-54
2021/08/10 03:02:13;;;;;;;9.00;5.00;;;12.70;99.90;;;;;;4979194;28;20050;-54
2021/08/10 03:04:58;;;;;;;7.63;5.38;;;12.80;99.90;;;;;;4982585;28;20110;-52
2021/08/10 03:07:25;;;;;;;7.03;5.53;;;12.80;99.90;;;;;;4969778;28;20022;-53
2021/08/10 03:09:55;;;;;;;6.35;5.53;;;12.80;99.90;;;;;;4978927;28;20027;-52
2021/08/10 03:12:23;;;;;;;7.97;6.18;;;12.80;99.90;;;;;;4969636;28;20366;-55
2021/08/10 03:14:50;;;;;;;8.95;5.75;;;12.80;99.90;;;;;;4979911;28;20031;-54
2021/08/10 03:17:17;;;;;;;6.60;5.50;;;12.80;99.90;;;;;;4980710;28;20738;-55
2021/08/10 03:19:45;;;;;;;8.07;6.15;;;12.80;99.90;;;;;;4980878;28;20034;-52
2021/08/10 03:22:12;;;;;;;8.98;5.53;;;12.80;99.90;;;;;;4980509;28;20021;-56
2021/08/10 03:24:38;;;;;;;9.02;6.47;;;12.80;99.90;;;;;;4980707;28;20396;-52
2021/08/10 03:27:05;;;;;;;9.05;6.03;;;12.80;99.90;;;;;;4979973;28;20046;-53
2021/08/10 03:29:33;;;;;;;7.88;6.40;;;12.70;99.90;;;;;;4986684;28;20093;-54
2021/08/10 03:32:00;;;;;;;6.03;5.45;;;12.70;99.90;;;;;;4983631;28;20157;-56
2021/08/10 03:34:27;;;;;;;11.95;5.57;;;12.70;99.90;;;;;;4981505;28;20404;-56
2021/08/10 03:36:53;;;;;;;9.32;5.97;;;12.70;99.90;;;;;;4986488;28;20034;-53
2021/08/10 03:39:20;;;;;;;9.65;6.40;;;12.70;99.90;;;;;;4981066;28;20450;-55
2021/08/10 03:41:46;;;;;;;9.43;5.40;;;12.70;99.90;;;;;;4987781;28;20038;-55
2021/08/10 03:44:14;;;;;;;8.38;5.93;;;12.80;99.90;;;;;;4993819;23;20047;-50
2021/08/10 03:46:40;;;;;;;8.10;6.20;;;12.80;99.90;;;;;;4952738;29;20150;-52
2021/08/10 03:49:06;;;;;;;6.22;4.80;;;12.80;99.90;;;;;;4945711;29;20074;-46
2021/08/10 03:51:35;;;;;;;6.88;5.65;;;12.80;99.90;;;;;;4952041;29;20665;-46
2021/08/10 03:54:01;;;;;;;7.28;5.40;;;12.80;99.90;;;;;;4952527;29;20050;-46
2021/08/10 03:56:27;;;;;;;8.07;5.63;;;12.80;99.90;;;;;;4942406;29;20062;-51
2021/08/10 03:58:54;;;;;;;9.50;6.30;;;12.80;99.90;;;;;;4949523;29;20031;-48
2021/08/10 04:01:21;;;;;;;6.65;5.30;;;12.90;99.90;;;;;;4942451;29;20047;-48
2021/08/10 04:03:47;;;;;;;7.05;4.95;;;12.90;99.90;;;;;;4949485;29;20038;-46
2021/08/10 04:06:14;;;;;;;7.93;5.72;;;12.90;99.90;;;;;;4948833;29;20023;-46
2021/08/10 04:08:40;;;;;;;8.80;5.18;;;12.90;99.90;;;;;;4937451;29;20114;-50
2021/08/10 04:11:06;;;;;;;8.32;5.38;;;12.80;99.90;;;;;;4948450;29;20110;-46
2021/08/10 04:13:32;;;;;;;6.43;5.30;;;12.90;99.90;;;;;;4942108;29;20098;-48
2021/08/10 04:16:02;;;;;;;9.55;5.88;;;12.90;99.90;;;;;;4948731;29;20738;-49
2021/08/10 04:18:29;;;;;;;8.23;6.05;;;13.00;99.90;;;;;;4941757;29;20016;-46
2021/08/10 04:20:55;;;;;;;6.60;5.32;;;13.00;99.90;;;;;;4949624;29;20027;-46
2021/08/10 04:23:22;;;;;;;6.15;4.95;;;13.00;99.90;;;;;;4941705;29;20067;-48
2021/08/10 04:25:47;;;;;;;6.50;5.32;;;13.00;99.90;;;;;;4941826;29;20020;-49
2021/08/10 04:28:14;;;;;;;7.20;5.30;;;13.00;99.90;;;;;;4945103;29;20027;-47
2021/08/10 04:30:41;;;;;;;6.03;4.97;;;13.10;99.90;;;;;;4945969;29;20070;-49
2021/08/10 04:33:07;;;;;;;8.43;5.07;;;13.10;99.90;;;;;;4943584;29;20030;-50
2021/08/10 04:35:34;;;;;;;6.68;5.22;;;13.10;99.90;;;;;;4944526;28;20038;-49
2021/08/10 04:38:00;;;;;;;7.65;5.28;;;13.10;99.90;;;;;;4942999;29;20110;-51
2021/08/10 04:40:28;;;;;;;7.60;5.20;;;13.10;99.90;;;;;;4945131;29;20027;-46
2021/08/10 04:42:55;;;;;;;8.32;5.38;;;13.10;99.90;;;;;;4943317;29;20035;-51
2021/08/10 04:45:20;;;;;;;9.40;5.53;;;13.10;99.90;;;;;;4940658;29;20046;-46
2021/08/10 04:47:46;;;;;;;7.35;4.90;;;13.10;99.90;;;;;;4945265;29;20019;-48
2021/08/10 04:50:12;;;;;;;7.03;5.30;;;13.20;99.90;;;;;;4944456;29;20028;-48
2021/08/10 04:52:37;;;;;;;5.68;4.47;;;13.20;99.90;;;;;;4945226;29;20026;-47
2021/08/10 04:55:05;;;;;;;5.90;5.30;;;13.20;99.90;;;;;;4942435;29;20114;-52
2021/08/10 04:57:30;;;;;;;8.30;5.57;;;13.30;99.90;;;;;;4944937;28;20094;-48
2021/08/10 04:59:56;;;;;;;5.78;5.00;;;13.40;99.90;;;;;;4942370;29;20482;-49
2021/08/10 05:02:22;;;;;;;11.27;5.40;;;13.40;99.90;;;;;;4944404;29;20042;-50
2021/08/10 05:04:47;;;;;;;7.40;5.68;;;13.40;99.90;;;;;;4944431;29;20039;-52
2021/08/10 05:07:13;;;;;;;6.05;4.78;;;13.50;99.90;;;;;;4943733;29;20031;-48
2021/08/10 05:09:40;;;;;;;6.05;5.45;;;13.50;99.90;;;;;;4944641;29;20027;-49
2021/08/10 05:12:07;;;;;;;6.07;5.47;;;13.60;99.90;;;;;;4940938;29;20095;-49
2021/08/10 05:14:33;;;;;;;5.70;4.70;;;13.60;99.90;;;;;;4939375;29;20062;-47
2021/08/10 05:16:59;;;;;;;6.60;4.90;;;13.60;99.90;;;;;;4943067;29;20040;-50
2021/08/10 05:19:24;;;;;;;6.72;4.82;;;13.70;99.90;;;;;;4944334;29;20405;-52
2021/08/10 05:21:50;;;;;;;5.78;4.55;;;13.70;99.90;;;;;;4944083;29;20090;-52
2021/08/10 05:24:15;;;;;;;5.95;5.00;;;13.80;99.90;;;;;;4943699;29;20027;-49
2021/08/10 05:26:41;;;;;;;5.85;4.95;;;13.80;99.90;;;;;;4943980;29;20028;-48
2021/08/10 05:29:06;;;;;;;7.25;5.03;;;13.80;99.90;;;;;;4943648;29;20051;-49
2021/08/10 05:31:32;;;;;;;5.65;4.90;;;13.80;99.90;;;;;;4943752;29;20094;-50
2021/08/10 05:33:58;;;;;;;8.77;4.55;;;13.90;99.90;;;;;;4941686;29;20026;-48
2021/08/10 05:36:23;;;;;;;5.07;4.57;;;13.90;99.90;;;;;;4942748;29;20023;-50
2021/08/10 05:38:50;;;;;;;5.80;4.60;;;14.00;99.90;;;;;;4943968;29;20039;-48
2021/08/10 05:41:16;;;;;;;6.55;4.75;;;14.00;99.90;;;;;;4942789;29;20409;-50
2021/08/10 05:43:42;;;;;;;5.28;4.78;;;14.10;99.90;;;;;;4938863;28;20028;-47
2021/08/10 05:46:08;;;;;;;8.18;4.80;;;14.10;99.90;;;;;;4943987;29;20035;-48
2021/08/10 05:48:33;;;;;;;5.90;5.32;;;14.10;99.90;;;;;;4943867;29;20545;-47
2021/08/10 05:51:00;;;;;;;5.22;4.63;;;14.10;99.90;;;;;;4941994;29;20027;-53
2021/08/10 05:53:26;;;;;;;6.50;5.07;;;14.20;99.90;;;;;;4943162;29;20039;-46
2021/08/10 05:55:51;;;;;;;8.43;5.25;;;14.20;99.90;;;;;;4943452;29;20055;-50
2021/08/10 05:58:17;;;;;;;10.30;5.72;;;14.20;99.90;;;;;;4942834;29;20405;-50
2021/08/10 06:00:43;;;;;;;5.90;5.30;;;14.20;99.90;;;;;;4943992;29;20023;-51
2021/08/10 06:03:08;;;;;;;6.60;4.85;;;14.20;99.90;;;;;;4943466;28;20074;-47
2021/08/10 06:05:34;;;;;;;6.78;5.22;;;14.30;99.90;;;;;;4941455;29;20551;-50
2021/08/10 06:08:00;;;;;;;5.82;4.47;;;14.30;99.90;;;;;;4941898;29;20023;-49
2021/08/10 06:10:26;;;;;;;8.85;5.28;;;14.40;99.90;;;;;;4942571;29;20019;-50
2021/08/10 06:12:52;;;;;;;6.47;5.38;;;14.40;99.90;;;;;;4943009;29;20015;-52
2021/08/10 06:15:17;;;;;;;6.93;4.75;;;14.40;99.90;;;;;;4942988;29;20114;-50
2021/08/10 06:17:43;;;;;;;7.45;5.50;;;14.50;99.90;;;;;;4943049;29;20568;-49
2021/08/10 06:20:09;;;;;;;7.00;5.50;;;14.50;99.90;;;;;;4942942;29;20066;-47
2021/08/10 06:22:35;;;;;;;7.05;4.82;;;14.50;99.90;;;;;;4942889;29;20042;-53
2021/08/10 06:25:01;;;;;;;7.13;5.40;;;14.50;99.90;;;;;;4941506;29;20027;-49
2021/08/10 06:27:26;;;;;;;8.90;5.45;;;14.60;99.90;;;;;;4937288;29;20114;-51
2021/08/10 06:29:52;;;;;;;6.35;5.25;;;14.60;99.90;;;;;;4947071;29;20027;-55
2021/08/10 06:32:17;;;;;;;7.50;5.15;;;14.60;99.90;;;;;;4939580;29;20098;-49
2021/08/10 06:34:43;;;;;;;6.38;5.05;;;14.70;99.90;;;;;;4938591;29;20020;-49
2021/08/10 06:37:08;;;;;;;6.22;5.32;;;14.70;99.90;;;;;;4945667;29;20027;-52
2021/08/10 06:39:34;;;;;;;6.47;5.50;;;14.80;99.90;;;;;;4939277;29;20028;-52
2021/08/10 06:42:00;;;;;;;6.03;5.22;;;14.80;99.90;;;;;;4946321;29;20026;-53
2021/08/10 06:44:25;;;;;;;6.88;5.07;;;14.90;99.90;;;;;;4934980;29;20085;-51
2021/08/10 06:46:51;;;;;;;6.47;4.85;;;14.90;99.90;;;;;;4946272;29;20123;-49
2021/08/10 06:49:17;;;;;;;6.78;5.05;;;14.90;99.90;;;;;;4939289;29;20023;-53
2021/08/10 06:51:42;;;;;;;8.50;5.03;;;15.00;99.90;;;;;;4939350;29;20049;-49
2021/08/10 06:54:08;;;;;;;8.45;5.50;;;15.00;99.90;;;;;;4945083;29;20023;-48
2021/08/10 06:56:33;;;;;;;8.85;5.57;;;15.10;99.90;;;;;;4939115;29;20111;-51
2021/08/10 06:58:59;;;;;;;10.35;5.40;;;15.10;99.90;;;;;;4945790;29;20034;-49
2021/08/10 07:01:24;;;;;;;6.30;4.97;;;15.10;99.90;;;;;;4937458;28;20043;-47
2021/08/10 07:03:50;;;;;;;6.70;4.60;;;15.20;99.90;;;;;;4928315;29;20090;-48
2021/08/10 07:06:16;;;;;;;6.53;5.28;;;15.20;99.90;;;;;;4938377;29;20045;-49
2021/08/10 07:08:41;;;;;;;5.93;5.10;;;15.30;99.90;;;;;;4937987;29;20470;-49
2021/08/10 07:11:07;;;;;;;7.15;4.88;;;15.30;99.90;;;;;;4931080;29;20039;-47
2021/08/10 07:13:33;;;;;;;7.30;5.57;;;15.40;99.90;;;;;;4916082;29;20059;-48
2021/08/10 07:15:58;;;;;;;6.50;5.43;;;15.40;99.90;;;;;;4928668;29;20039;-49
2021/08/10 07:18:24;;;;;;;5.60;5.05;;;15.50;99.90;;;;;;4940054;29;20037;-49
2021/08/10 07:20:49;;;;;;;6.95;5.18;;;15.50;99.90;;;;;;4938778;29;20106;-49
2021/08/10 07:23:15;;;;;;;8.18;5.63;;;15.60;99.90;;;;;;4942751;29;20653;-54
2021/08/10 07:25:40;;;;;;;7.15;5.35;;;15.70;99.90;;;;;;4938885;29;20086;-50
2021/08/10 07:28:06;;;;;;;9.20;5.38;;;15.70;99.90;;;;;;4941021;29;20036;-50
2021/08/10 07:30:32;;;;;;;5.78;5.18;;;15.80;99.90;;;;;;4944911;29;20023;-51
2021/08/10 07:32:57;;;;;;;8.15;5.90;;;15.80;99.90;;;;;;4932340;29;20035;-49
2021/08/10 07:35:23;;;;;;;5.38;4.90;;;15.90;99.90;;;;;;4941876;29;20417;-49
2021/08/10 07:37:49;;;;;;;11.07;5.47;;;16.00;99.90;;;;;;4940848;29;20686;-48
2021/08/10 07:40:15;;;;;;;6.75;5.18;;;16.10;99.90;;;;;;4957095;28;20122;-49
2021/08/10 07:42:41;;;;;;;7.15;5.57;;;16.20;99.90;;;;;;4942778;29;20024;-49
2021/08/10 07:45:07;;;;;;;8.32;5.00;;;16.30;99.90;;;;;;4936683;29;20062;-51
2021/08/10 07:47:33;;;;;;;5.90;5.07;;;16.20;99.90;;;;;;4943861;29;20027;-51
2021/08/10 07:49:59;;;;;;;5.32;4.40;;;16.30;99.90;;;;;;4939303;29;20115;-50
2021/08/10 07:52:25;;;;;;;6.45;4.53;;;16.30;99.90;;;;;;4942375;29;20533;-50
2021/08/10 07:54:51;;;;;;;6.90;4.32;;;16.30;99.90;;;;;;4939646;29;20115;-51
2021/08/10 07:57:16;;;;;;;7.75;4.13;;;16.30;99.90;;;;;;4941539;29;20409;-48
2021/08/10 07:59:42;;;;;;;5.90;4.50;;;16.30;99.90;;;;;;4942036;29;20059;-52
2021/08/10 08:02:08;;;;;;;5.72;4.50;;;16.40;99.90;;;;;;4941124;29;20028;-48
2021/08/10 08:04:35;;;;;;;5.70;4.22;;;16.40;99.90;;;;;;4943359;29;20030;-48
2021/08/10 08:07:01;;;;;;;8.48;4.07;;;16.30;99.90;;;;;;4939567;29;20031;-53
2021/08/10 08:09:28;;;;;;;5.35;4.60;;;16.50;99.90;;;;;;4941646;29;20443;-54
2021/08/10 08:11:53;;;;;;;6.72;5.00;;;16.80;99.90;;;;;;4939653;28;20517;-51
2021/08/10 08:14:20;;;;;;;5.85;4.55;;;17.00;99.90;;;;;;4944273;28;20068;-48
2021/08/10 08:16:47;;;;;;;7.28;4.95;;;17.10;99.90;;;;;;4942079;29;20043;-49
2021/08/10 08:19:13;;;;;;;8.55;4.57;;;17.20;99.90;;;;;;4929402;29;20109;-50
2021/08/10 08:21:39;;;;;;;5.75;4.07;;;17.40;99.90;;;;;;4940894;29;20038;-50
2021/08/10 08:24:06;;;;;;;5.53;4.15;;;17.60;99.90;;;;;;4942618;29;20027;-51
2021/08/10 08:26:32;;;;;;;5.22;4.20;;;17.80;99.90;;;;;;4944724;29;20031;-50
2021/08/10 08:28:57;;;;;;;7.90;4.68;;;18.00;99.90;;;;;;4944816;29;20019;-48
2021/08/10 08:31:23;;;;;;;6.47;4.00;;;18.20;99.90;;;;;;4945787;29;20019;-52
2021/08/10 08:33:48;;;;;;;7.18;3.53;;;18.30;99.90;;;;;;4945013;29;20023;-52
2021/08/10 08:36:14;;;;;;;8.07;3.83;;;18.50;99.90;;;;;;4942454;29;20038;-55
2021/08/10 08:38:40;;;;;;;6.15;4.13;;;18.60;99.90;;;;;;4945195;29;20066;-53
2021/08/10 08:41:06;;;;;;;5.22;4.25;;;18.70;99.90;;;;;;4943893;29;20055;-52
2021/08/10 08:43:31;;;;;;;4.38;3.53;;;18.90;99.90;;;;;;4941938;29;20016;-52
2021/08/10 08:45:57;;;;;;;8.13;3.72;;;19.10;99.90;;;;;;4943419;29;20042;-52
2021/08/10 08:48:25;;;;;;;5.93;3.25;;;19.10;99.90;;;;;;4944396;29;20481;-53
2021/08/10 08:50:52;;;;;;;4.85;3.67;;;19.10;99.90;;;;;;4944847;29;20027;-54
2021/08/10 08:53:19;;;;;;;5.15;3.40;;;19.10;99.90;;;;;;4942349;29;20877;-52
2021/08/10 08:55:47;;;;;;;9.73;4.40;;;19.30;99.90;;;;;;4944492;29;20027;-54
2021/08/10 08:58:14;;;;;;;6.07;3.75;;;19.50;99.90;;;;;;4943871;29;20118;-51
2021/08/10 09:00:40;;;;;;;4.78;3.75;;;19.70;99.90;;;;;;4936113;29;20024;-47
2021/08/10 09:03:06;;;;;;;5.28;3.08;;;19.80;99.90;;;;;;4943229;29;20501;-46
2021/08/10 09:05:34;;;;;;;5.40;3.67;;;19.80;99.90;;;;;;4942421;29;20031;-49
2021/08/10 09:08:26;;;;;;;8.75;3.90;;;19.70;99.90;;;;;;4937702;29;20032;-49
2021/08/10 09:10:53;;;;;;;6.80;3.33;;;19.50;99.90;;;;;;4943295;29;20016;-53
2021/08/10 09:13:19;;;;;;;8.65;3.80;;;19.40;99.90;;;;;;4929805;29;20082;-52
2021/08/10 09:15:46;;;;;;;5.32;3.20;;;19.30;99.90;;;;;;4943776;29;20023;-55
2021/08/10 09:18:14;;;;;;;5.00;3.13;;;19.30;99.90;;;;;;4956182;28;20478;-47
2021/08/10 09:20:41;;;;;;;5.50;3.50;;;19.40;99.90;;;;;;4945954;29;20027;-50
2021/08/10 09:23:07;;;;;;;6.57;3.08;;;19.60;99.90;;;;;;4941944;29;20606;-46
2021/08/10 09:25:34;;;;;;;4.43;2.65;;;19.90;99.90;;;;;;4939923;29;20111;-50
2021/08/10 09:28:08;;;;;;;4.07;2.65;;;20.10;99.90;;;;;;4941601;29;20030;-47
2021/08/10 09:30:34;;;;;;;6.82;2.60;;;20.30;99.90;;;;;;4946194;29;20494;-47
2021/08/10 09:33:03;;;;;;;4.00;3.13;;;20.30;99.90;;;;;;4940278;29;20023;-48
2021/08/10 09:35:32;;;;;;;4.13;3.45;;;20.30;99.90;;;;;;4943433;29;20020;-49
2021/08/10 09:38:11;;;;;;;5.35;2.88;;;20.30;99.90;;;;;;4940020;29;20023;-51
2021/08/10 09:40:42;;;;;;;7.20;3.97;;;20.40;99.90;;;;;;4943051;29;20394;-49
2021/08/10 09:43:20;;;;;;;5.18;3.15;;;20.30;99.90;;;;;;4941987;29;20096;-46
2021/08/10 09:45:47;;;;;;;6.85;3.13;;;20.20;99.90;;;;;;4988201;23;20513;-53
2021/08/10 09:48:17;;;;;;;3.75;2.40;;;20.00;99.90;;;;;;4989548;28;20508;-52
2021/08/10 09:50:44;;;;;;;5.28;3.10;;;19.90;99.90;;;;;;4989239;28;20029;-52
2021/08/10 09:53:21;;;;;;;4.90;2.90;;;19.90;99.90;;;;;;4989685;28;20042;-51
2021/08/10 09:55:55;;;;;;;7.07;3.60;;;19.80;99.90;;;;;;4985518;28;20018;-51
2021/08/10 09:58:21;;;;;;;5.13;2.60;;;19.70;99.90;;;;;;4980871;28;20042;-52
2021/08/10 10:00:47;;;;;;;5.68;2.38;;;19.70;99.90;;;;;;4971226;28;20058;-55
2021/08/10 10:03:24;;;;;;;4.57;2.78;;;19.60;99.90;;;;;;4982824;28;20117;-53
2021/08/10 10:05:51;;;;;;;5.00;3.05;;;19.70;99.90;;;;;;4979305;28;20058;-51
2021/08/10 10:08:25;;;;;;;6.43;3.10;;;19.80;99.90;;;;;;4974755;28;20236;-54
2021/08/10 10:10:53;;;;;;;4.95;2.78;;;19.90;99.90;;;;;;4980428;28;20015;-51
2021/08/10 10:13:20;;;;;;;5.35;3.33;;;20.00;99.90;;;;;;4969619;28;20389;-51
2021/08/10 10:15:47;;;;;;;6.15;3.20;;;20.00;99.90;;;;;;4981832;28;20026;-52
2021/08/10 10:18:13;;;;;;;12.07;4.57;;;19.90;99.90;;;;;;4979020;28;20027;-55
2021/08/10 10:20:44;;;;;;;3.72;3.03;;;19.80;99.90;;;;;;4983704;28;20575;-52
2021/08/10 10:23:24;;;;;;;6.03;3.22;;;19.70;99.90;;;;;;4990536;28;20114;-53
2021/08/10 10:25:51;;;;;;;8.20;3.72;;;19.60;99.90;;;;;;4975219;28;20037;-51
2021/08/10 10:28:18;;;;;;;6.68;3.70;;;19.50;99.90;;;;;;4967770;28;20037;-55
2021/08/10 10:30:46;;;;;;;8.57;3.97;;;19.40;99.90;;;;;;4981903;28;20022;-53
2021/08/10 10:33:14;;;;;;;5.50;3.55;;;19.50;99.90;;;;;;4980483;28;20050;-54
2021/08/10 10:35:41;;;;;;;6.55;3.95;;;19.60;99.90;;;;;;4980707;28;20022;-51
2021/08/10 10:38:08;;;;;;;7.05;3.95;;;19.60;99.90;;;;;;4975244;28;20053;-53
2021/08/10 10:40:34;;;;;;;6.65;3.75;;;19.80;99.90;;;;;;4981750;28;20022;-53
2021/08/10 10:43:00;;;;;;;4.93;3.75;;;20.00;99.90;;;;;;4974284;28;20069;-51
2021/08/10 10:45:40;;;;;;;4.40;3.72;;;20.20;99.90;;;;;;4977190;28;20045;-53
2021/08/10 10:48:32;;;;;;;7.28;4.00;;;20.50;99.90;;;;;;4981025;28;20393;-52
2021/08/10 10:51:08;;;;;;;5.30;3.85;;;20.70;99.90;;;;;;4957734;28;20118;-50
2021/08/10 10:53:35;;;;;;;4.05;3.55;;;20.60;99.90;;;;;;4955541;28;20029;-53
2021/08/10 10:56:01;;;;;;;6.57;3.92;;;20.60;99.90;;;;;;4958447;28;20023;-51
2021/08/10 10:58:32;;;;;;;4.78;3.88;;;20.40;99.90;;;;;;4957533;28;20031;-51
2021/08/10 11:01:29;;;;;;;4.60;3.95;;;20.30;99.90;;;;;;4957581;28;20062;-52
2021/08/10 11:04:04;;;;;;;5.78;3.83;;;20.10;99.90;;;;;;4953757;28;20462;-54
2021/08/10 11:06:32;;;;;;;6.23;4.87;;;19.90;99.90;;;;;;4976805;28;20053;-53
2021/08/10 11:08:59;;;;;;;4.28;3.90;;;19.90;99.90;;;;;;4977547;28;20357;-51
2021/08/10 11:11:51;;;;;;;4.85;4.40;;;19.80;99.90;;;;;;4980750;28;20441;-51
2021/08/10 11:14:35;;;;;;;5.90;5.35;;;19.70;99.90;;;;;;4963157;28;20033;-52
2021/08/10 11:17:12;;;;;;;6.18;5.32;;;19.70;99.90;;;;;;4978555;28;20027;-55
2021/08/10 11:19:43;;;;;;;6.28;5.68;;;19.70;99.90;;;;;;4977467;28;20492;-51
2021/08/10 11:22:17;;;;;;;6.15;5.50;;;19.70;99.90;;;;;;4980786;28;20636;-51
2021/08/10 11:24:52;;;;;;;6.45;5.85;;;19.50;99.90;;;;;;4978790;28;20042;-53
2021/08/10 11:27:41;;;;;;;6.20;5.60;;;19.40;99.90;;;;;;4972802;28;20054;-53
2021/08/10 11:30:21;;;;;;;8.68;6.63;;;19.10;99.90;;;;;;4985262;28;20499;-54
2021/08/10 11:32:49;;;;;;;10.55;7.10;;;19.00;99.90;;;;;;4977037;28;20030;-53
2021/08/10 11:35:38;;;;;;;10.32;7.22;;;18.80;99.90;;;;;;4979836;28;20029;-53
2021/08/10 11:38:12;;;;;;;8.00;6.95;;;18.60;99.90;;;;;;4976441;28;20027;-52
2021/08/10 11:40:55;;;;;;;7.72;5.80;;;18.50;99.90;;;;;;4980593;28;20125;-54
2021/08/10 11:43:34;;;;;;;6.53;5.93;;;18.50;99.90;;;;;;4978572;28;20018;-53
2021/08/10 11:46:01;;;;;;;6.25;5.65;;;18.40;99.90;;;;;;4979792;28;20026;-51
2021/08/10 11:48:40;;;;;;;6.82;6.32;;;18.60;99.90;;;;;;4982167;28;20018;-52
2021/08/10 11:51:41;;;;;;;6.85;6.22;;;18.70;99.90;;;;;;4982440;28;20018;-52
2021/08/10 11:54:09;;;;;;;6.68;6.07;;;18.90;99.90;;;;;;4980223;28;20034;-55
2021/08/10 11:56:37;;;;;;;8.02;6.60;;;19.00;99.90;;;;;;4980729;28;20485;-54
2021/08/10 11:59:10;;;;;;;7.07;5.97;;;19.10;99.90;;;;;;4988554;28;20400;-52
2021/08/10 12:01:38;;;;;;;7.40;6.65;;;19.10;99.90;;;;;;4981656;28;20377;-51
2021/08/10 12:04:18;;;;;;;7.95;6.43;;;19.10;99.90;;;;;;4989157;28;20097;-53
2021/08/10 12:06:51;;;;;;;8.15;6.63;;;19.00;99.90;;;;;;4980786;28;20022;-52
2021/08/10 12:09:24;;;;;;;8.32;7.18;;;18.90;99.90;;;;;;4968810;28;20568;-51
2021/08/10 12:11:55;;;;;;;7.03;6.38;;;18.90;99.90;;;;;;4979407;28;20026;-50
2021/08/10 12:14:22;;;;;;;8.57;7.70;;;18.90;99.90;;;;;;4970701;28;20069;-51
2021/08/10 12:17:04;;;;;;;7.90;7.10;;;19.00;99.90;;;;;;4982542;28;20038;-51
2021/08/10 12:19:31;;;;;;;8.23;7.43;;;19.10;99.90;;;;;;4974318;28;20112;-53
2021/08/10 12:21:57;;;;;;;8.73;7.90;;;19.30;99.90;;;;;;4983104;28;20031;-49
2021/08/10 12:24:33;;;;;;;7.53;6.22;;;19.40;99.90;;;;;;4983456;28;20030;-52
2021/08/10 12:26:59;;;;;;;9.25;6.50;;;19.50;99.90;;;;;;4982362;28;20496;-50
2021/08/10 12:29:32;;;;;;;8.00;7.30;;;19.70;99.90;;;;;;4977434;28;20019;-50
2021/08/10 12:31:57;;;;;;;6.78;6.07;;;19.80;99.90;;;;;;4982988;28;20023;-52
2021/08/10 12:34:34;;;;;;;6.60;5.40;;;19.90;99.90;;;;;;4979914;28;20555;-50
2021/08/10 12:36:59;;;;;;;6.70;5.47;;;20.00;99.90;;;;;;4985893;28;20030;-51
2021/08/10 12:39:26;;;;;;;6.28;5.05;;;20.10;99.90;;;;;;4979984;28;20482;-51
2021/08/10 12:41:52;;;;;;;5.68;4.75;;;20.10;99.90;;;;;;4986686;28;20046;-52
2021/08/10 12:44:28;;;;;;;6.45;4.22;;;20.10;99.90;;;;;;4955505;28;20019;-50
2021/08/10 12:46:59;;;;;;;4.13;3.55;;;20.00;99.90;;;;;;4952926;28;20043;-52
2021/08/10 12:49:39;;;;;;;6.35;3.97;;;20.10;99.90;;;;;;4969561;28;20152;-50
2021/08/10 12:52:06;;;;;;;4.15;3.65;;;20.30;99.90;;;;;;4955526;28;20441;-50